Time;durP1;ratioP1;P1;durP2;ratioP2;P2;SDS_P1;SDS_P2;PMS_P1;PMS_P2;Temp;Humidity;BMP_temperature;BMP_pressure;BME280_temperature;BME280_humidity;BME280_pressure;Samples;Min_cycle;Max_cycle;Signal;HPM_P1;HPM_P2
2023/01/16 04:08:12;;;;;;;3.83;0.70;;;4.10;99.90;;;;;;5097398;28;20695;-81
2023/01/16 04:10:43;;;;;;;1.90;0.73;;;4.10;99.90;;;;;;5071808;28;20468;-83
2023/01/16 04:13:13;;;;;;;1.50;0.80;;;4.30;99.90;;;;;;5076449;28;20446;-79
2023/01/16 04:15:44;;;;;;;2.00;0.90;;;4.50;99.90;;;;;;5063775;28;20450;-82
2023/01/16 04:18:11;;;;;;;2.43;0.70;;;4.70;99.90;;;;;;5057293;28;20441;-80
2023/01/16 04:20:40;;;;;;;1.30;0.60;;;4.80;99.90;;;;;;5081861;28;20563;-81
2023/01/16 04:23:08;;;;;;;2.17;0.70;;;5.00;99.90;;;;;;5076646;28;20447;-80
2023/01/16 04:25:35;;;;;;;2.10;0.87;;;5.10;99.90;;;;;;5078665;28;20519;-81
2023/01/16 04:28:02;;;;;;;2.27;0.90;;;5.20;99.90;;;;;;5078901;28;20485;-81
2023/01/16 04:30:29;;;;;;;4.17;1.10;;;5.30;99.90;;;;;;5076952;28;20559;-78
2023/01/16 04:32:56;;;;;;;1.50;0.67;;;5.40;99.90;;;;;;5072422;28;20546;-79
2023/01/16 04:35:23;;;;;;;3.40;0.80;;;5.40;99.90;;;;;;5064989;28;20924;-80
2023/01/16 04:37:49;;;;;;;4.87;1.03;;;5.50;99.90;;;;;;5056850;28;20537;-78
2023/01/16 04:40:18;;;;;;;1.60;0.67;;;5.50;99.90;;;;;;5076144;28;20997;-78
2023/01/16 04:42:45;;;;;;;1.93;0.83;;;5.60;99.90;;;;;;5074486;28;20450;-78
2023/01/16 04:45:12;;;;;;;1.90;0.80;;;5.60;99.90;;;;;;5075326;28;20556;-79
2023/01/16 04:47:38;;;;;;;2.17;0.80;;;5.60;99.90;;;;;;5074481;28;20551;-78
2023/01/16 04:50:06;;;;;;;2.47;0.87;;;5.50;99.90;;;;;;5072588;28;20556;-79
2023/01/16 04:52:33;;;;;;;2.73;0.80;;;5.40;99.90;;;;;;5073675;28;20558;-79
2023/01/16 04:55:00;;;;;;;3.93;0.90;;;5.30;99.90;;;;;;5069643;28;20882;-80
2023/01/16 04:57:28;;;;;;;2.70;0.70;;;5.30;99.90;;;;;;5075670;28;20444;-78
2023/01/16 04:59:55;;;;;;;1.90;1.00;;;5.20;99.90;;;;;;5073457;28;20473;-79
2023/01/16 05:02:22;;;;;;;1.77;0.90;;;5.20;99.90;;;;;;5074235;28;20540;-79
2023/01/16 05:04:49;;;;;;;1.80;0.70;;;5.10;99.90;;;;;;5074735;28;20449;-79
2023/01/16 05:07:15;;;;;;;2.90;0.80;;;5.20;99.90;;;;;;5072263;28;20571;-80
2023/01/16 05:09:42;;;;;;;3.53;1.13;;;5.10;99.90;;;;;;5073727;28;20516;-80
2023/01/16 05:12:09;;;;;;;1.57;0.77;;;5.10;99.90;;;;;;5069974;28;20454;-78
2023/01/16 05:14:37;;;;;;;1.97;0.70;;;5.10;99.90;;;;;;5066985;28;20539;-77
2023/01/16 05:17:04;;;;;;;3.10;1.53;;;5.10;99.90;;;;;;5061003;28;20537;-80
2023/01/16 05:19:31;;;;;;;1.40;0.70;;;5.10;99.90;;;;;;5055786;28;20472;-78
2023/01/16 05:21:58;;;;;;;1.83;1.00;;;5.10;99.90;;;;;;5056460;28;20544;-77
2023/01/16 05:24:24;;;;;;;1.93;0.90;;;5.10;99.90;;;;;;5058665;28;20498;-81
2023/01/16 05:26:51;;;;;;;2.07;0.90;;;5.00;99.90;;;;;;5041673;28;20484;-79
2023/01/16 05:29:18;;;;;;;2.27;0.80;;;5.00;99.90;;;;;;5041136;28;21048;-78
2023/01/16 05:31:46;;;;;;;2.03;0.80;;;5.10;99.90;;;;;;5038268;28;20485;-77
2023/01/16 05:34:13;;;;;;;1.80;0.80;;;5.00;99.90;;;;;;5037556;28;20458;-79
2023/01/16 05:36:40;;;;;;;3.30;1.30;;;5.10;99.90;;;;;;5036626;28;20450;-77
2023/01/16 05:39:07;;;;;;;3.27;0.97;;;5.10;99.90;;;;;;5038779;28;21573;-81
2023/01/16 05:41:34;;;;;;;3.00;1.00;;;5.20;99.90;;;;;;5055591;28;20463;-78
2023/01/16 05:44:01;;;;;;;5.53;1.03;;;5.20;99.90;;;;;;5055690;28;20456;-78
2023/01/16 05:46:27;;;;;;;3.17;1.00;;;5.20;99.90;;;;;;5058583;28;21051;-80
2023/01/16 05:48:55;;;;;;;3.03;1.10;;;5.10;99.90;;;;;;5060480;28;20561;-80
2023/01/16 05:51:22;;;;;;;2.60;0.80;;;5.20;99.90;;;;;;5045449;28;20455;-78
2023/01/16 05:53:51;;;;;;;2.43;0.80;;;5.20;99.90;;;;;;5035865;28;20533;-79
2023/01/16 05:56:22;;;;;;;2.20;0.90;;;5.20;99.90;;;;;;5035609;28;20476;-79
2023/01/16 06:01:28;;;;;;;4.40;0.97;;;5.20;99.90;;;;;;5011419;28;20971;-78
2023/01/16 06:03:57;;;;;;;4.40;0.90;;;5.20;99.90;;;;;;5013314;28;20445;-78
2023/01/16 06:06:23;;;;;;;2.77;1.10;;;5.30;99.90;;;;;;5012131;28;20454;-79
2023/01/16 06:08:50;;;;;;;2.90;1.00;;;5.30;99.90;;;;;;5015735;28;20517;-79
2023/01/16 06:11:17;;;;;;;2.30;1.10;;;5.30;99.90;;;;;;5013435;28;20564;-79
2023/01/16 06:13:46;;;;;;;3.13;0.90;;;5.30;99.90;;;;;;4993401;28;20457;-78
2023/01/16 06:16:12;;;;;;;2.13;0.80;;;5.40;99.90;;;;;;4995498;28;20453;-78
2023/01/16 06:18:39;;;;;;;1.37;0.77;;;5.40;99.90;;;;;;4995529;28;20493;-79
2023/01/16 06:21:07;;;;;;;5.57;1.10;;;5.50;99.90;;;;;;5000041;28;20487;-78
2023/01/16 06:23:34;;;;;;;4.17;1.27;;;5.50;99.90;;;;;;4998363;28;20450;-78
2023/01/16 06:26:02;;;;;;;3.00;1.00;;;5.50;99.90;;;;;;4994937;28;20463;-80
2023/01/16 06:28:29;;;;;;;2.37;0.90;;;5.60;99.90;;;;;;4995033;28;20521;-79
2023/01/16 06:30:56;;;;;;;3.30;0.70;;;5.60;99.90;;;;;;4993458;28;20479;-78
2023/01/16 06:33:23;;;;;;;2.77;0.80;;;5.60;99.90;;;;;;4995242;28;20437;-78
2023/01/16 06:35:49;;;;;;;2.00;0.70;;;5.70;99.90;;;;;;4998904;28;20458;-81
2023/01/16 06:38:18;;;;;;;2.30;0.93;;;5.70;99.90;;;;;;5001965;28;20535;-79
2023/01/16 06:40:45;;;;;;;3.53;0.90;;;5.80;99.90;;;;;;5001489;28;20568;-79
2023/01/16 06:43:12;;;;;;;1.90;1.00;;;5.80;99.90;;;;;;5001294;28;20460;-78
2023/01/16 06:45:39;;;;;;;2.63;0.93;;;5.80;99.90;;;;;;5002138;28;20977;-79
2023/01/16 06:48:06;;;;;;;2.00;0.70;;;5.90;99.90;;;;;;5001097;28;20589;-78
2023/01/16 06:50:33;;;;;;;2.80;0.80;;;5.90;99.90;;;;;;5000644;28;20477;-78
2023/01/16 06:53:02;;;;;;;1.60;0.70;;;5.90;99.90;;;;;;5020936;28;20473;-78
2023/01/16 06:55:30;;;;;;;3.00;0.97;;;5.90;99.90;;;;;;5022037;28;20525;-79
2023/01/16 06:57:57;;;;;;;1.80;0.73;;;5.90;99.90;;;;;;5020865;28;20595;-78
2023/01/16 07:00:25;;;;;;;2.70;0.90;;;5.90;99.90;;;;;;5021367;28;20579;-78
2023/01/16 07:02:54;;;;;;;2.20;0.63;;;6.00;99.90;;;;;;4998205;28;20523;-78
2023/01/16 07:05:22;;;;;;;2.07;0.80;;;5.90;99.90;;;;;;4998180;28;20515;-77
2023/01/16 07:07:49;;;;;;;3.03;1.00;;;6.00;99.90;;;;;;4998341;28;20577;-77
2023/01/16 07:10:16;;;;;;;2.80;0.90;;;6.00;99.90;;;;;;4998472;28;20511;-79
2023/01/16 07:12:45;;;;;;;4.17;1.10;;;6.00;99.90;;;;;;5000899;28;20462;-79
2023/01/16 07:23:29;;;;;;;2.80;1.00;;;6.10;99.90;;;;;;4998267;28;20437;-79
2023/01/16 07:25:57;;;;;;;3.50;1.20;;;6.10;99.90;;;;;;4997016;28;20458;-80
2023/01/16 07:28:25;;;;;;;3.10;0.90;;;6.20;99.90;;;;;;4999801;28;20507;-79
2023/01/16 07:30:53;;;;;;;2.70;0.90;;;6.20;99.90;;;;;;5000461;28;20585;-79
2023/01/16 07:33:20;;;;;;;3.20;0.90;;;6.20;99.90;;;;;;4994472;28;20510;-79
2023/01/16 07:35:46;;;;;;;2.63;1.10;;;6.30;99.90;;;;;;4999362;28;20549;-79
2023/01/16 07:38:13;;;;;;;2.27;1.00;;;6.30;99.90;;;;;;5001365;28;20483;-78
2023/01/16 07:40:40;;;;;;;1.93;0.80;;;6.30;99.90;;;;;;5016726;28;20555;-79
2023/01/16 07:43:07;;;;;;;3.30;1.50;;;6.20;99.90;;;;;;4987663;28;20482;-79
2023/01/16 07:45:35;;;;;;;3.70;1.20;;;6.20;99.90;;;;;;4996000;28;20500;-79
2023/01/16 07:48:02;;;;;;;3.10;0.93;;;6.20;99.90;;;;;;5001314;28;20481;-78
2023/01/16 07:50:29;;;;;;;5.53;1.20;;;6.20;99.90;;;;;;5000136;28;20630;-79
2023/01/16 07:52:56;;;;;;;3.23;1.17;;;6.20;99.90;;;;;;5002656;28;20471;-79
2023/01/16 07:55:23;;;;;;;4.90;1.17;;;6.20;99.90;;;;;;5002281;28;20466;-79
2023/01/16 07:57:50;;;;;;;3.63;1.10;;;6.20;99.90;;;;;;5002217;28;20511;-79
2023/01/16 08:00:18;;;;;;;2.37;1.23;;;6.20;99.90;;;;;;5001238;28;20503;-79
2023/01/16 08:02:46;;;;;;;3.97;1.00;;;6.10;99.90;;;;;;5000135;28;20462;-79
2023/01/16 08:05:15;;;;;;;2.37;1.00;;;6.10;99.90;;;;;;5001813;28;20501;-78
2023/01/16 08:07:42;;;;;;;2.87;0.97;;;6.10;99.90;;;;;;5001522;28;20525;-79
2023/01/16 08:10:10;;;;;;;1.90;0.80;;;6.00;99.90;;;;;;5011547;28;20507;-78
2023/01/16 08:12:39;;;;;;;2.70;0.90;;;6.00;99.90;;;;;;5004984;28;20990;-78
2023/01/16 08:15:06;;;;;;;1.53;0.90;;;6.00;99.90;;;;;;5008204;28;20540;-80
2023/01/16 08:17:33;;;;;;;2.17;1.00;;;5.90;99.90;;;;;;5002882;28;20901;-79
2023/01/16 08:20:01;;;;;;;3.97;1.20;;;5.90;99.90;;;;;;5001271;28;20503;-80
2023/01/16 08:22:28;;;;;;;4.37;1.27;;;5.90;99.90;;;;;;4999895;28;20510;-82
2023/01/16 08:24:55;;;;;;;3.50;1.00;;;5.80;99.90;;;;;;5002273;28;20462;-81
2023/01/16 08:27:25;;;;;;;3.43;1.13;;;5.80;99.90;;;;;;5007407;28;20563;-80
2023/01/16 08:29:52;;;;;;;5.00;1.20;;;5.80;99.90;;;;;;5007452;28;20519;-80
2023/01/16 08:32:18;;;;;;;2.53;1.23;;;5.70;99.90;;;;;;5004261;28;20461;-79
2023/01/16 08:34:45;;;;;;;2.07;0.93;;;5.60;99.90;;;;;;5016589;28;20450;-79
2023/01/16 08:37:14;;;;;;;4.80;1.43;;;5.60;99.90;;;;;;5015000;28;20465;-79
2023/01/16 08:39:41;;;;;;;7.80;1.20;;;5.50;99.90;;;;;;5003420;28;20799;-80
2023/01/16 08:53:08;;;;;;;4.73;1.10;;;5.30;99.90;;;;;;5008559;28;20445;-81
2023/01/16 08:55:35;;;;;;;2.53;1.33;;;5.40;99.90;;;;;;5012157;28;20457;-81
2023/01/16 08:58:02;;;;;;;2.80;0.70;;;5.40;99.90;;;;;;5007503;28;20463;-81
2023/01/16 09:00:30;;;;;;;3.13;1.03;;;5.40;99.90;;;;;;5007434;28;20570;-81
2023/01/16 09:02:59;;;;;;;2.13;1.00;;;5.40;99.90;;;;;;5022318;28;20465;-82
2023/01/16 09:05:26;;;;;;;3.40;1.23;;;5.40;99.90;;;;;;5031948;28;20465;-82
2023/01/16 09:07:53;;;;;;;2.17;0.97;;;5.50;99.90;;;;;;5028713;28;20491;-82
2023/01/16 09:10:21;;;;;;;2.70;0.70;;;5.60;99.90;;;;;;5020645;28;20484;-82
2023/01/16 09:15:32;;;;;;;4.67;1.07;;;5.60;99.90;;;;;;5009845;28;20446;-81
2023/01/16 09:17:59;;;;;;;1.73;0.90;;;5.80;99.90;;;;;;5007566;28;20540;-82
2023/01/16 09:20:26;;;;;;;4.90;1.00;;;5.80;99.90;;;;;;5007676;28;20476;-81
2023/01/16 09:22:58;;;;;;;4.60;0.90;;;5.90;99.90;;;;;;5008599;28;20450;-81
2023/01/16 09:25:27;;;;;;;4.40;0.93;;;5.90;99.90;;;;;;5007779;28;20445;-82
2023/01/16 09:27:54;;;;;;;1.80;0.70;;;6.00;99.90;;;;;;5007982;28;20587;-81
2023/01/16 09:30:21;;;;;;;3.57;0.90;;;6.10;99.90;;;;;;5006317;28;20489;-81
2023/01/16 09:32:48;;;;;;;2.53;1.03;;;6.10;99.90;;;;;;5007075;28;20449;-80
2023/01/16 09:35:16;;;;;;;2.60;1.20;;;6.10;99.90;;;;;;5006976;28;20448;-81
2023/01/16 09:37:44;;;;;;;2.17;0.90;;;6.10;99.90;;;;;;5004991;28;20459;-81
2023/01/16 09:40:14;;;;;;;2.27;1.00;;;6.10;99.90;;;;;;5002074;28;20508;-81
2023/01/16 09:45:51;;;;;;;1.63;0.90;;;5.90;99.90;;;;;;5005184;28;20448;-80
2023/01/16 09:48:27;;;;;;;1.70;0.90;;;5.90;99.90;;;;;;5004331;28;21218;-80
2023/01/16 09:50:58;;;;;;;2.23;1.00;;;5.90;99.90;;;;;;5004910;28;20483;-82
2023/01/16 09:59:23;;;;;;;4.37;0.87;;;5.80;99.90;;;;;;5005265;28;20443;-81
2023/01/16 10:01:55;;;;;;;3.30;0.90;;;5.80;99.90;;;;;;5002852;28;20448;-80
2023/01/16 10:04:24;;;;;;;2.67;1.50;;;5.70;99.90;;;;;;5003732;28;20441;-79
2023/01/16 10:07:02;;;;;;;2.40;0.93;;;5.70;99.90;;;;;;5003755;28;20516;-81
2023/01/16 10:09:41;;;;;;;5.00;1.40;;;5.70;99.90;;;;;;5003879;28;20589;-82
2023/01/16 10:12:12;;;;;;;3.57;0.80;;;5.60;99.90;;;;;;5001438;28;20484;-82
2023/01/16 10:15:13;;;;;;;4.20;1.20;;;5.60;99.90;;;;;;5003640;28;20481;-80
2023/01/16 10:17:49;;;;;;;2.57;1.10;;;5.60;99.90;;;;;;5004662;28;20434;-82
2023/01/16 10:20:41;;;;;;;2.10;0.90;;;5.50;99.90;;;;;;5003136;28;20473;-81
2023/01/16 10:23:22;;;;;;;2.10;0.90;;;5.50;99.90;;;;;;5003326;28;20437;-83
2023/01/16 10:25:55;;;;;;;2.13;0.90;;;5.50;99.90;;;;;;5001443;28;20519;-81
2023/01/16 10:28:35;;;;;;;2.83;1.10;;;5.60;99.90;;;;;;4998013;28;20483;-81
2023/01/16 10:31:10;;;;;;;2.47;0.90;;;5.60;99.90;;;;;;5000675;28;21096;-82
2023/01/16 10:33:43;;;;;;;1.90;0.90;;;5.60;99.90;;;;;;5000320;28;20526;-81
2023/01/16 10:36:13;;;;;;;3.97;1.03;;;5.70;99.90;;;;;;5001260;28;20541;-80
2023/01/16 10:38:45;;;;;;;3.57;1.20;;;5.60;99.90;;;;;;5004459;28;20448;-81
2023/01/16 10:49:36;;;;;;;2.30;1.20;;;5.60;99.90;;;;;;5006293;28;20520;-82
2023/01/16 10:52:06;;;;;;;2.20;0.90;;;5.70;99.90;;;;;;5008615;28;20465;-82
2023/01/16 10:54:33;;;;;;;2.20;1.17;;;5.70;99.90;;;;;;5008024;28;20463;-81
2023/01/16 10:57:03;;;;;;;2.77;1.07;;;5.70;99.90;;;;;;5006435;28;20482;-82
2023/01/16 10:59:31;;;;;;;1.70;0.80;;;5.80;99.90;;;;;;5006367;28;20476;-82
2023/01/16 11:02:05;;;;;;;2.40;1.00;;;5.80;99.90;;;;;;5002226;28;20472;-81
2023/01/16 11:04:35;;;;;;;2.10;0.90;;;5.80;99.90;;;;;;4997226;28;20480;-81
2023/01/16 11:07:17;;;;;;;3.63;1.43;;;5.80;99.90;;;;;;4996741;28;20438;-80
2023/01/16 11:09:45;;;;;;;2.10;0.90;;;5.90;99.90;;;;;;4997028;28;21268;-79
2023/01/16 11:20:44;;;;;;;1.40;0.60;;;6.30;99.90;;;;;;5009551;28;20500;-80
2023/01/16 11:23:17;;;;;;;1.90;0.90;;;6.40;99.90;;;;;;5005890;28;20497;-80
2023/01/16 11:25:45;;;;;;;3.50;0.90;;;6.50;99.90;;;;;;5003984;28;21132;-79
2023/01/16 11:28:19;;;;;;;2.17;0.77;;;6.60;99.90;;;;;;5001197;28;20494;-79
2023/01/16 11:30:47;;;;;;;1.50;0.70;;;6.70;99.90;;;;;;5000024;28;20487;-79
2023/01/16 11:33:19;;;;;;;2.40;0.90;;;6.70;99.90;;;;;;5001047;28;20457;-78
2023/01/16 11:35:53;;;;;;;1.97;0.87;;;6.90;99.90;;;;;;5001350;28;20897;-80
2023/01/16 11:38:21;;;;;;;1.60;0.87;;;7.20;99.90;;;;;;5000594;28;20461;-79
2023/01/16 11:40:49;;;;;;;2.27;0.80;;;7.80;99.90;;;;;;5006418;28;20909;-79
2023/01/16 11:46:11;;;;;;;1.57;0.63;;;8.90;99.90;;;;;;5020767;28;20569;-79
2023/01/16 11:48:42;;;;;;;2.40;0.60;;;9.10;99.90;;;;;;5019949;28;20481;-78
2023/01/16 11:51:14;;;;;;;2.30;0.60;;;10.60;99.90;;;;;;5016751;28;20993;-79
2023/01/16 11:53:43;;;;;;;2.20;0.87;;;11.40;99.90;;;;;;5020202;28;20441;-79
2023/01/16 11:56:37;;;;;;;2.40;1.03;;;10.70;99.90;;;;;;5020952;28;20551;-78
2023/01/16 11:59:23;;;;;;;1.90;0.80;;;10.00;99.90;;;;;;5014902;28;20455;-78
2023/01/16 12:02:18;;;;;;;2.03;0.80;;;9.20;99.90;;;;;;5007508;28;20456;-79
2023/01/16 12:07:41;;;;;;;2.77;0.80;;;8.50;99.90;;;;;;5001903;28;20440;-78
2023/01/16 12:10:22;;;;;;;1.90;0.80;;;8.20;99.90;;;;;;5000514;28;20574;-78
2023/01/16 12:15:50;;;;;;;3.03;0.80;;;7.90;99.90;;;;;;4993682;28;20565;-79
2023/01/16 12:18:24;;;;;;;3.80;0.80;;;7.70;99.90;;;;;;5001036;28;20434;-78
2023/01/16 12:20:59;;;;;;;2.07;1.03;;;7.40;99.90;;;;;;5007656;28;20583;-78
2023/01/16 12:23:40;;;;;;;1.50;0.70;;;7.30;99.90;;;;;;5020500;28;20555;-79
2023/01/16 12:26:18;;;;;;;1.67;0.80;;;7.30;99.90;;;;;;5004457;28;20476;-79
2023/01/16 12:29:03;;;;;;;2.13;0.80;;;7.40;99.90;;;;;;5007620;28;20472;-79
2023/01/16 12:31:50;;;;;;;2.00;0.83;;;8.30;99.90;;;;;;5012661;28;20438;-78
2023/01/16 12:34:30;;;;;;;2.00;0.83;;;9.70;99.90;;;;;;5016051;28;20450;-78
2023/01/16 12:37:13;;;;;;;2.00;1.03;;;10.30;99.90;;;;;;5009217;28;20897;-77
2023/01/16 12:39:48;;;;;;;2.20;0.80;;;10.40;99.90;;;;;;5002945;28;20960;-80
2023/01/16 12:45:21;;;;;;;1.70;0.80;;;9.90;99.90;;;;;;5002454;28;20435;-79
2023/01/16 12:48:04;;;;;;;4.53;0.80;;;9.60;99.90;;;;;;5002330;28;20464;-78
2023/01/16 12:50:45;;;;;;;2.00;0.70;;;9.10;99.90;;;;;;5007573;28;20469;-79
2023/01/16 12:53:28;;;;;;;1.87;0.70;;;8.60;99.90;;;;;;5021472;28;20434;-77
2023/01/16 12:56:02;;;;;;;1.83;1.00;;;8.40;99.90;;;;;;5017227;28;20560;-79
2023/01/16 12:58:32;;;;;;;1.50;0.73;;;8.30;99.90;;;;;;5002045;28;20424;-78
2023/01/16 13:01:09;;;;;;;1.63;0.70;;;8.30;99.90;;;;;;5001453;28;20479;-78
2023/01/16 13:03:42;;;;;;;2.70;1.00;;;8.20;99.90;;;;;;5001811;28;20454;-78
2023/01/16 13:06:14;;;;;;;2.60;1.00;;;8.00;99.90;;;;;;5002579;28;20530;-78
2023/01/16 13:08:51;;;;;;;1.60;0.70;;;7.80;99.90;;;;;;5002898;28;20504;-77
2023/01/16 13:14:11;;;;;;;2.27;0.70;;;7.50;99.90;;;;;;5001805;28;20517;-79
2023/01/16 13:16:45;;;;;;;1.97;0.80;;;7.30;99.90;;;;;;5003983;28;20973;-77
2023/01/16 13:19:15;;;;;;;3.23;0.70;;;7.30;99.90;;;;;;5004474;28;20452;-77
2023/01/16 13:21:56;;;;;;;2.67;0.80;;;7.30;99.90;;;;;;5000570;28;20872;-78
2023/01/16 13:24:30;;;;;;;2.40;0.83;;;7.40;99.90;;;;;;5001309;28;20828;-77
2023/01/16 13:27:01;;;;;;;2.10;0.80;;;7.40;99.90;;;;;;5001190;28;20489;-78
2023/01/16 13:29:33;;;;;;;3.00;1.00;;;7.30;99.90;;;;;;5012027;28;20568;-78
2023/01/16 13:32:13;;;;;;;3.17;0.93;;;7.20;99.90;;;;;;5019796;28;20451;-78
2023/01/16 13:34:46;;;;;;;2.23;0.70;;;7.00;99.90;;;;;;5019592;28;20439;-78
2023/01/16 13:37:31;;;;;;;2.57;0.80;;;6.90;99.90;;;;;;5010462;28;20841;-78
2023/01/16 13:40:13;;;;;;;1.70;0.80;;;6.90;99.90;;;;;;4998028;28;20553;-78
2023/01/16 13:42:50;;;;;;;2.40;0.80;;;6.80;99.90;;;;;;4999468;28;20458;-79
2023/01/16 13:48:06;;;;;;;1.40;0.70;;;6.80;99.90;;;;;;5004257;28;20430;-78
2023/01/16 13:50:36;;;;;;;1.50;0.70;;;6.90;99.90;;;;;;5002408;28;20493;-78
2023/01/16 13:53:08;;;;;;;2.13;0.80;;;6.80;99.90;;;;;;5003744;28;20490;-78
2023/01/16 13:55:39;;;;;;;1.60;0.73;;;6.80;99.90;;;;;;5002407;28;20529;-78
2023/01/16 13:58:14;;;;;;;1.80;0.70;;;6.80;99.90;;;;;;5008270;28;20458;-78
2023/01/16 14:00:43;;;;;;;1.50;0.60;;;6.80;99.90;;;;;;5002450;28;20477;-78
2023/01/16 14:03:28;;;;;;;2.90;0.70;;;6.70;99.90;;;;;;5004526;28;20522;-78
2023/01/16 14:06:16;;;;;;;1.77;0.83;;;6.80;99.90;;;;;;5006157;28;20452;-79
2023/01/16 14:09:07;;;;;;;1.83;0.63;;;6.80;99.90;;;;;;5008969;28;20499;-80
2023/01/16 14:11:59;;;;;;;1.80;0.80;;;6.80;99.90;;;;;;5019290;28;20510;-79
2023/01/16 14:17:21;;;;;;;1.40;0.60;;;7.20;99.90;;;;;;5005980;28;20442;-78
2023/01/16 14:19:54;;;;;;;1.80;0.90;;;7.30;99.90;;;;;;5004855;28;20588;-79
2023/01/16 14:25:22;;;;;;;1.80;0.60;;;7.30;99.90;;;;;;5006347;28;20450;-78
2023/01/16 14:27:55;;;;;;;3.53;0.90;;;7.20;99.90;;;;;;5007179;28;20465;-79
2023/01/16 14:30:26;;;;;;;1.63;0.70;;;7.10;99.90;;;;;;5006289;28;20497;-79
2023/01/16 14:32:56;;;;;;;1.60;0.77;;;6.90;99.90;;;;;;5006676;28;20450;-79
2023/01/16 14:35:26;;;;;;;1.60;0.80;;;6.80;99.90;;;;;;5006760;28;20431;-79
2023/01/16 14:38:00;;;;;;;2.10;1.10;;;6.80;99.90;;;;;;5004442;28;20897;-78
2023/01/16 14:55:48;;;;;;;2.47;0.90;;;6.20;99.90;;;;;;4931671;28;20526;-81
2023/01/16 14:58:21;;;;;;;2.43;1.00;;;6.20;99.90;;;;;;4988502;28;20458;-82
2023/01/16 15:00:51;;;;;;;2.90;1.00;;;6.10;99.90;;;;;;4988399;28;21029;-81
2023/01/16 15:03:27;;;;;;;1.83;0.80;;;6.00;99.90;;;;;;5007676;28;21068;-82
2023/01/16 15:05:58;;;;;;;1.70;0.80;;;5.90;99.90;;;;;;5025680;28;20459;-79
2023/01/16 15:08:28;;;;;;;1.77;0.90;;;5.80;99.90;;;;;;5025005;28;20433;-79
2023/01/16 15:10:57;;;;;;;1.50;0.73;;;5.70;99.90;;;;;;5023816;28;20520;-80
2023/01/16 15:13:27;;;;;;;2.13;0.73;;;5.60;99.90;;;;;;5023564;28;20431;-78
2023/01/16 15:15:59;;;;;;;1.70;0.70;;;5.60;99.90;;;;;;5027122;28;20840;-79
2023/01/16 15:24:01;;;;;;;2.40;0.80;;;5.50;99.90;;;;;;5004098;28;20431;-79
2023/01/16 15:26:54;;;;;;;2.70;1.30;;;5.50;99.90;;;;;;5029919;28;20486;-82
2023/01/16 15:29:40;;;;;;;1.70;0.90;;;5.40;99.90;;;;;;5008536;28;20567;-79
2023/01/16 15:32:17;;;;;;;1.70;0.80;;;5.40;99.90;;;;;;5022089;28;20522;-80
2023/01/16 15:34:44;;;;;;;2.43;0.80;;;5.40;99.90;;;;;;5021760;28;20532;-80
2023/01/16 15:37:22;;;;;;;3.83;0.80;;;5.30;99.90;;;;;;5024175;28;20480;-79
2023/01/16 15:39:50;;;;;;;1.33;0.70;;;5.40;99.90;;;;;;5002179;28;21059;-79
2023/01/16 15:48:13;;;;;;;1.60;0.90;;;5.30;99.90;;;;;;5001399;28;20487;-79
2023/01/16 15:50:51;;;;;;;1.93;1.30;;;5.20;99.90;;;;;;4998823;28;20871;-78
2023/01/16 15:53:18;;;;;;;1.50;0.90;;;5.20;99.90;;;;;;4996623;28;20986;-78
2023/01/16 15:55:50;;;;;;;3.73;1.13;;;5.30;99.90;;;;;;4997582;28;20459;-78
2023/01/16 15:58:19;;;;;;;3.73;1.10;;;5.30;99.90;;;;;;4997291;28;20495;-79
2023/01/16 16:00:55;;;;;;;2.27;1.33;;;5.40;99.90;;;;;;4996500;28;20573;-79
2023/01/16 16:03:25;;;;;;;2.00;1.00;;;5.40;99.90;;;;;;5002232;28;20453;-78
2023/01/16 16:05:55;;;;;;;2.43;1.20;;;5.40;99.90;;;;;;5017827;28;20447;-79
2023/01/16 16:08:24;;;;;;;3.23;1.10;;;5.40;99.90;;;;;;5017565;28;20460;-78
2023/01/16 16:13:38;;;;;;;2.57;1.40;;;5.50;99.90;;;;;;5006990;28;20452;-78
2023/01/16 16:19:02;;;;;;;3.40;1.10;;;5.50;99.90;;;;;;5006128;28;20440;-80
2023/01/16 16:21:31;;;;;;;2.03;1.10;;;5.50;99.90;;;;;;5006145;28;20457;-80
2023/01/16 16:24:02;;;;;;;3.77;1.50;;;5.50;99.90;;;;;;5020668;28;20539;-80
2023/01/16 16:26:34;;;;;;;2.00;1.40;;;5.50;99.90;;;;;;5025256;28;20453;-80
2023/01/16 16:29:01;;;;;;;2.23;1.37;;;5.50;99.90;;;;;;5025110;28;20516;-80
2023/01/16 16:31:32;;;;;;;2.80;1.40;;;5.50;99.90;;;;;;5024082;28;20543;-80
2023/01/16 16:34:03;;;;;;;1.87;1.30;;;5.60;99.90;;;;;;5024254;28;20487;-80
2023/01/16 16:36:34;;;;;;;4.40;1.10;;;5.60;99.90;;;;;;5017947;28;20544;-80
2023/01/16 16:39:01;;;;;;;1.60;1.10;;;5.60;99.90;;;;;;5003983;28;20536;-81
2023/01/16 16:44:40;;;;;;;1.90;1.30;;;5.60;99.90;;;;;;4996161;28;20506;-82
2023/01/16 16:47:22;;;;;;;3.10;1.53;;;5.60;99.90;;;;;;5005446;28;20537;-83
2023/01/16 16:49:49;;;;;;;3.07;1.23;;;5.60;99.90;;;;;;5003393;28;20485;-82
2023/01/16 17:04:34;;;;;;;2.17;1.43;;;5.60;99.90;;;;;;5135778;27;20616;-80
2023/01/16 17:07:02;;;;;;;2.77;1.37;;;5.80;99.90;;;;;;5106555;28;20490;-80
2023/01/16 17:09:31;;;;;;;1.83;1.23;;;5.80;99.90;;;;;;5167192;22;20480;-81
2023/01/16 17:12:00;;;;;;;2.03;1.40;;;5.80;99.90;;;;;;5120245;28;20864;-81
2023/01/16 17:14:27;;;;;;;1.90;1.43;;;5.70;99.90;;;;;;5141369;28;20454;-80
2023/01/16 17:16:54;;;;;;;1.60;1.00;;;5.60;99.90;;;;;;5123153;28;20474;-80
2023/01/16 17:19:29;;;;;;;2.90;1.87;;;5.60;99.90;;;;;;5114986;28;20476;-80
2023/01/16 17:21:58;;;;;;;2.53;1.57;;;5.60;99.90;;;;;;5099520;28;20454;-79
2023/01/16 17:24:25;;;;;;;3.30;2.33;;;5.60;99.90;;;;;;5099948;28;20449;-80
2023/01/16 17:26:51;;;;;;;2.50;1.50;;;5.60;99.90;;;;;;5110211;28;20975;-82
2023/01/16 17:29:19;;;;;;;2.77;1.63;;;5.60;99.90;;;;;;5117179;28;20552;-80
2023/01/16 17:31:47;;;;;;;2.03;1.40;;;5.60;99.90;;;;;;5119546;28;20530;-82
2023/01/16 17:34:15;;;;;;;2.10;1.40;;;5.70;99.90;;;;;;5118642;28;20530;-80
2023/01/16 17:36:42;;;;;;;2.30;1.40;;;5.80;99.90;;;;;;5118324;28;20505;-80
2023/01/16 17:39:10;;;;;;;1.80;1.17;;;5.70;99.90;;;;;;5119425;28;20464;-82
2023/01/16 17:47:07;;;;;;;4.20;2.03;;;5.60;99.90;;;;;;5118619;28;20480;-81
2023/01/16 17:50:20;;;;;;;3.73;1.60;;;5.60;99.90;;;;;;5119270;28;20473;-79
2023/01/16 17:52:21;;;;;;;2.10;1.33;;;5.70;99.90;;;;;;5106603;28;20498;-80
2023/01/16 17:57:48;;;;;;;3.10;1.60;;;5.70;99.90;;;;;;5059124;28;20431;-79
2023/01/16 18:00:16;;;;;;;2.90;1.57;;;5.60;99.90;;;;;;5058831;28;21061;-82
2023/01/16 18:02:43;;;;;;;1.87;1.13;;;5.70;99.90;;;;;;5080541;28;20560;-81
2023/01/16 18:05:09;;;;;;;2.50;1.40;;;5.70;99.90;;;;;;5100129;28;20963;-80
2023/01/16 18:07:36;;;;;;;2.00;1.27;;;5.70;99.90;;;;;;5095799;28;20450;-82
2023/01/16 18:10:06;;;;;;;3.20;1.43;;;5.80;99.90;;;;;;5100430;28;20470;-82
2023/01/16 18:18:01;;;;;;;2.13;1.10;;;5.70;99.90;;;;;;5095776;28;20458;-80
2023/01/16 18:20:28;;;;;;;1.80;1.10;;;5.70;99.90;;;;;;5091340;28;20458;-80
2023/01/16 18:22:55;;;;;;;1.87;1.07;;;5.60;99.90;;;;;;5092649;28;20449;-82
2023/01/16 18:25:23;;;;;;;1.90;1.10;;;5.60;99.90;;;;;;5096085;28;20519;-80
2023/01/16 18:27:50;;;;;;;2.07;1.27;;;5.60;99.90;;;;;;5094026;28;20504;-82
2023/01/16 18:30:18;;;;;;;1.90;1.20;;;5.60;99.90;;;;;;5086464;28;20464;-82
2023/01/16 18:32:44;;;;;;;1.97;1.40;;;5.70;99.90;;;;;;5087953;28;20986;-83
2023/01/16 18:35:11;;;;;;;1.67;1.10;;;5.80;99.90;;;;;;5094010;28;20457;-81
2023/01/16 18:37:40;;;;;;;2.93;1.50;;;5.80;99.90;;;;;;5098860;28;20457;-82
2023/01/16 19:02:45;;;;;;;1.77;1.23;;;5.60;99.90;;;;;;5097811;28;20435;-80
2023/01/16 19:05:12;;;;;;;2.57;1.70;;;5.70;99.90;;;;;;5098138;28;20485;-82
2023/01/16 19:07:45;;;;;;;2.70;1.77;;;5.60;99.90;;;;;;5103628;28;20480;-81
2023/01/16 19:10:16;;;;;;;4.20;2.30;;;5.50;99.90;;;;;;5097173;28;20485;-81
2023/01/16 19:12:44;;;;;;;3.33;2.70;;;5.40;99.90;;;;;;5095554;28;20477;-81
2023/01/16 19:15:14;;;;;;;4.37;2.70;;;5.40;99.90;;;;;;5099169;28;20487;-79
2023/01/16 19:17:41;;;;;;;4.03;2.50;;;5.30;99.90;;;;;;5093611;28;21007;-80
2023/01/16 19:20:10;;;;;;;2.70;2.40;;;5.40;99.90;;;;;;5094832;28;20489;-81
2023/01/16 19:22:37;;;;;;;3.40;2.80;;;5.50;99.90;;;;;;5097342;28;20476;-80
2023/01/16 19:25:05;;;;;;;2.90;2.60;;;5.50;99.90;;;;;;5098616;28;20451;-80
2023/01/16 19:27:33;;;;;;;4.60;3.70;;;5.60;99.90;;;;;;5097468;28;20456;-81
2023/01/16 19:30:00;;;;;;;6.43;3.63;;;5.60;99.90;;;;;;5083184;28;20485;-79
2023/01/16 19:32:28;;;;;;;4.80;4.00;;;5.70;99.90;;;;;;5081651;28;20433;-82
2023/01/16 19:34:55;;;;;;;3.50;3.20;;;5.70;99.90;;;;;;5081335;28;20542;-81
2023/01/16 19:37:22;;;;;;;4.07;3.40;;;5.80;99.90;;;;;;5081103;28;20454;-79
2023/01/16 19:39:49;;;;;;;4.77;4.10;;;5.80;99.90;;;;;;5080990;28;20520;-81
2023/01/16 19:47:45;;;;;;;5.37;4.40;;;5.90;99.90;;;;;;5081337;28;20450;-83
2023/01/16 19:50:12;;;;;;;6.80;4.53;;;5.90;99.90;;;;;;5095542;28;20502;-82
2023/01/16 19:52:39;;;;;;;7.90;5.60;;;5.90;99.90;;;;;;5101288;28;20504;-81
2023/01/16 19:55:07;;;;;;;7.53;5.70;;;5.80;99.90;;;;;;5102024;28;20545;-81
2023/01/16 19:57:34;;;;;;;7.30;5.67;;;5.80;99.90;;;;;;5102857;28;20463;-82
2023/01/16 20:00:00;;;;;;;8.70;5.93;;;5.90;99.90;;;;;;5101426;28;20565;-81
2023/01/16 20:02:27;;;;;;;8.00;6.47;;;5.90;99.90;;;;;;5103845;28;20465;-81
2023/01/16 20:04:56;;;;;;;6.33;5.47;;;5.90;99.90;;;;;;5102355;28;20609;-84